GTI914 NFFN-NSFA
Flight info
| Callsign | GTI914 |
|---|---|
| Flight time | 1h 43m |
| Altitude | 34000 |
| Route | CHARLI GODAP GOKIT DCT IDNIP DCT DAKAM DCT UVUTI UVUT2A27 |
| Aircraft | B748/H-SG/L |
Departure
| Time | 2026-04-26 05:44 |
|---|---|
| Airport | Nadi International Airport (NFFN) |
Arrival
| Time | 2026-04-26 07:27 |
|---|---|
| Airport | Faleolo International Airport (NSFA) |
| Time | Latitude | Longitude | Altitude | Speed | Heading |
|---|---|---|---|---|---|
| 2026-04-26 05:21 | -17.75247 | 177.44991 | 63 ft | 0 kts | 96° |
| 2026-04-26 05:23 | -17.75245 | 177.44972 | 54 ft | 3 kts | 96° |
| 2026-04-26 05:23 | -17.75244 | 177.44959 | 54 ft | 3 kts | 96° |
| 2026-04-26 05:23 | -17.75242 | 177.44939 | 54 ft | 3 kts | 96° |
| 2026-04-26 05:24 | -17.75240 | 177.44921 | 54 ft | 0 kts | 130° |
| 2026-04-26 05:24 | -17.75239 | 177.44917 | 54 ft | 0 kts | 167° |
| 2026-04-26 05:24 | -17.75239 | 177.44916 | 54 ft | 0 kts | 170° |
| 2026-04-26 05:28 | -17.75240 | 177.44916 | 63 ft | 1 kts | 171° |
| 2026-04-26 05:28 | -17.75263 | 177.44920 | 59 ft | 6 kts | 173° |
| 2026-04-26 05:28 | -17.75309 | 177.44917 | 58 ft | 7 kts | 186° |
| 2026-04-26 05:28 | -17.75354 | 177.44920 | 58 ft | 7 kts | 171° |
| 2026-04-26 05:29 | -17.75403 | 177.44928 | 58 ft | 7 kts | 174° |
| 2026-04-26 05:29 | -17.75441 | 177.44921 | 58 ft | 0 kts | 197° |
| 2026-04-26 05:30 | -17.75442 | 177.44921 | 58 ft | 0 kts | 197° |
| 2026-04-26 05:31 | -17.75443 | 177.44921 | 58 ft | 0 kts | 197° |
| 2026-04-26 05:31 | -17.75445 | 177.44920 | 55 ft | 0 kts | 198° |
| 2026-04-26 05:31 | -17.75446 | 177.44920 | 55 ft | 0 kts | 198° |
| 2026-04-26 05:31 | -17.75449 | 177.44919 | 59 ft | 0 kts | 198° |
| 2026-04-26 05:32 | -17.75451 | 177.44918 | 59 ft | 0 kts | 199° |
| 2026-04-26 05:32 | -17.75454 | 177.44917 | 59 ft | 0 kts | 198° |
| 2026-04-26 05:33 | -17.75457 | 177.44916 | 55 ft | 1 kts | 198° |
| 2026-04-26 05:33 | -17.75461 | 177.44915 | 56 ft | 1 kts | 198° |
| 2026-04-26 05:33 | -17.75471 | 177.44911 | 57 ft | 2 kts | 198° |
| 2026-04-26 05:33 | -17.75492 | 177.44904 | 58 ft | 4 kts | 198° |
| 2026-04-26 05:34 | -17.75527 | 177.44893 | 57 ft | 6 kts | 197° |
| 2026-04-26 05:34 | -17.75565 | 177.44880 | 58 ft | 6 kts | 197° |
| 2026-04-26 05:34 | -17.75589 | 177.44866 | 54 ft | 2 kts | 227° |
| 2026-04-26 05:34 | -17.75594 | 177.44854 | 55 ft | 2 kts | 246° |
| 2026-04-26 05:35 | -17.75596 | 177.44836 | 55 ft | 2 kts | 270° |
| 2026-04-26 05:35 | -17.75595 | 177.44814 | 57 ft | 4 kts | 277° |
| 2026-04-26 05:35 | -17.75586 | 177.44775 | 55 ft | 6 kts | 283° |
| 2026-04-26 05:35 | -17.75575 | 177.44729 | 56 ft | 7 kts | 283° |
| 2026-04-26 05:36 | -17.75563 | 177.44670 | 58 ft | 9 kts | 284° |
| 2026-04-26 05:36 | -17.75547 | 177.44606 | 53 ft | 9 kts | 285° |
| 2026-04-26 05:36 | -17.75532 | 177.44544 | 53 ft | 9 kts | 283° |
| 2026-04-26 05:36 | -17.75523 | 177.44505 | 56 ft | 1 kts | 284° |
| 2026-04-26 05:37 | -17.75522 | 177.44504 | 56 ft | 0 kts | 284° |
| 2026-04-26 05:38 | -17.75521 | 177.44500 | 55 ft | 3 kts | 284° |
| 2026-04-26 05:38 | -17.75510 | 177.44451 | 56 ft | 11 kts | 283° |
| 2026-04-26 05:38 | -17.75499 | 177.44361 | 59 ft | 12 kts | 255° |
| 2026-04-26 05:39 | -17.75562 | 177.44292 | 53 ft | 16 kts | 216° |
| 2026-04-26 05:39 | -17.75670 | 177.44205 | 54 ft | 24 kts | 219° |
| 2026-04-26 05:39 | -17.75820 | 177.44082 | 55 ft | 31 kts | 218° |
| 2026-04-26 05:39 | -17.76011 | 177.43930 | 51 ft | 38 kts | 217° |
| 2026-04-26 05:40 | -17.76233 | 177.43751 | 49 ft | 43 kts | 217° |
| 2026-04-26 05:40 | -17.76474 | 177.43557 | 51 ft | 43 kts | 217° |
| 2026-04-26 05:40 | -17.76704 | 177.43371 | 52 ft | 40 kts | 218° |
| 2026-04-26 05:40 | -17.76920 | 177.43197 | 48 ft | 38 kts | 217° |
| 2026-04-26 05:41 | -17.77116 | 177.43040 | 45 ft | 26 kts | 218° |
| 2026-04-26 05:41 | -17.77218 | 177.42956 | 45 ft | 15 kts | 219° |
| 2026-04-26 05:41 | -17.77249 | 177.42884 | 45 ft | 10 kts | 265° |
| 2026-04-26 05:41 | -17.77277 | 177.42838 | 44 ft | 6 kts | 201° |
| 2026-04-26 05:42 | -17.77311 | 177.42847 | 45 ft | 4 kts | 139° |
| 2026-04-26 05:42 | -17.77316 | 177.42864 | 44 ft | 2 kts | 95° |
| 2026-04-26 05:42 | -17.77313 | 177.42874 | 45 ft | 1 kts | 67° |
| 2026-04-26 05:42 | -17.77304 | 177.42883 | 44 ft | 3 kts | 43° |
| 2026-04-26 05:43 | -17.77276 | 177.42908 | 50 ft | 7 kts | 39° |
| 2026-04-26 05:43 | -17.77196 | 177.42972 | 45 ft | 34 kts | 37° |
| 2026-04-26 05:43 | -17.76765 | 177.43321 | 49 ft | 121 kts | 37° |
| 2026-04-26 05:43 | -17.75907 | 177.44013 | 90 ft | 182 kts | 37° |
| 2026-04-26 05:44 | -17.74933 | 177.44778 | 408 ft | 176 kts | 37° |
| 2026-04-26 05:44 | -17.73823 | 177.45359 | 884 ft | 185 kts | 9° |
| 2026-04-26 05:44 | -17.72503 | 177.45159 | 1200 ft | 204 kts | 329° |
| 2026-04-26 05:44 | -17.71587 | 177.44054 | 1787 ft | 208 kts | 295° |
| 2026-04-26 05:45 | -17.71206 | 177.42540 | 2219 ft | 218 kts | 281° |
| 2026-04-26 05:45 | -17.70567 | 177.41056 | 2621 ft | 234 kts | 315° |
| 2026-04-26 05:45 | -17.69169 | 177.40116 | 3123 ft | 249 kts | 346° |
| 2026-04-26 05:45 | -17.67406 | 177.39953 | 3742 ft | 259 kts | 13° |
| 2026-04-26 05:46 | -17.65776 | 177.40736 | 4535 ft | 262 kts | 42° |
| 2026-04-26 05:46 | -17.64693 | 177.42259 | 5375 ft | 266 kts | 69° |
| 2026-04-26 05:46 | -17.64204 | 177.44120 | 6194 ft | 271 kts | 77° |
| 2026-04-26 05:46 | -17.63809 | 177.46067 | 6957 ft | 276 kts | 76° |
| 2026-04-26 05:47 | -17.63327 | 177.48030 | 7713 ft | 280 kts | 73° |
| 2026-04-26 05:47 | -17.62787 | 177.50018 | 8500 ft | 285 kts | 73° |
| 2026-04-26 05:47 | -17.62254 | 177.52036 | 9314 ft | 290 kts | 74° |
| 2026-04-26 05:47 | -17.61730 | 177.54096 | 10097 ft | 295 kts | 74° |
| 2026-04-26 05:48 | -17.61190 | 177.56208 | 10731 ft | 306 kts | 74° |
| 2026-04-26 05:48 | -17.60617 | 177.58419 | 11260 ft | 322 kts | 73° |
| 2026-04-26 05:48 | -17.60012 | 177.60748 | 11730 ft | 340 kts | 74° |
| 2026-04-26 05:48 | -17.59378 | 177.63205 | 12185 ft | 358 kts | 74° |
| 2026-04-26 05:49 | -17.58719 | 177.65759 | 12810 ft | 369 kts | 74° |
| 2026-04-26 05:49 | -17.57355 | 177.71026 | 14289 ft | 383 kts | 73° |
| 2026-04-26 05:49 | -17.56649 | 177.73750 | 15021 ft | 389 kts | 73° |
| 2026-04-26 05:50 | -17.55935 | 177.76505 | 15778 ft | 395 kts | 73° |
| 2026-04-26 05:50 | -17.55209 | 177.79303 | 16542 ft | 401 kts | 73° |
| 2026-04-26 05:50 | -17.54468 | 177.82154 | 17269 ft | 407 kts | 73° |
| 2026-04-26 05:50 | -17.53721 | 177.85030 | 18035 ft | 412 kts | 72° |
| 2026-04-26 05:51 | -17.52963 | 177.87946 | 18703 ft | 417 kts | 72° |
| 2026-04-26 05:51 | -17.52197 | 177.90895 | 19349 ft | 423 kts | 72° |
| 2026-04-26 05:51 | -17.51418 | 177.93887 | 19992 ft | 428 kts | 72° |
| 2026-04-26 05:51 | -17.50628 | 177.96919 | 20620 ft | 434 kts | 72° |
| 2026-04-26 05:52 | -17.49829 | 177.99985 | 21229 ft | 439 kts | 72° |
| 2026-04-26 05:52 | -17.49030 | 178.03050 | 21843 ft | 444 kts | 72° |
| 2026-04-26 05:52 | -17.48209 | 178.06192 | 22451 ft | 449 kts | 72° |
| 2026-04-26 05:52 | -17.47380 | 178.09368 | 23026 ft | 454 kts | 71° |
| 2026-04-26 05:53 | -17.46543 | 178.12572 | 23586 ft | 459 kts | 71° |
| 2026-04-26 05:53 | -17.45696 | 178.15811 | 24087 ft | 463 kts | 71° |
| 2026-04-26 05:53 | -17.44839 | 178.19083 | 24579 ft | 467 kts | 71° |
| 2026-04-26 05:53 | -17.43976 | 178.22382 | 25078 ft | 471 kts | 71° |
| 2026-04-26 05:54 | -17.43105 | 178.25705 | 25569 ft | 475 kts | 71° |
| 2026-04-26 05:54 | -17.42228 | 178.29049 | 26052 ft | 478 kts | 71° |
| 2026-04-26 05:54 | -17.41345 | 178.32414 | 26523 ft | 481 kts | 71° |
| 2026-04-26 05:54 | -17.40453 | 178.35808 | 26990 ft | 485 kts | 71° |
| 2026-04-26 05:55 | -17.39566 | 178.39184 | 27451 ft | 488 kts | 71° |
| 2026-04-26 05:55 | -17.38663 | 178.42617 | 27899 ft | 491 kts | 72° |
| 2026-04-26 05:55 | -17.37753 | 178.46074 | 28359 ft | 494 kts | 72° |
| 2026-04-26 05:55 | -17.36834 | 178.49562 | 28792 ft | 497 kts | 72° |
| 2026-04-26 05:56 | -17.35908 | 178.53072 | 29230 ft | 501 kts | 72° |
| 2026-04-26 05:56 | -17.34977 | 178.56601 | 29664 ft | 504 kts | 72° |
| 2026-04-26 05:56 | -17.34040 | 178.60150 | 30068 ft | 507 kts | 72° |
| 2026-04-26 05:56 | -17.33097 | 178.63719 | 30422 ft | 511 kts | 72° |
| 2026-04-26 05:57 | -17.32145 | 178.67320 | 30775 ft | 514 kts | 72° |
| 2026-04-26 05:57 | -17.31200 | 178.70891 | 31113 ft | 517 kts | 72° |
| 2026-04-26 05:57 | -17.30224 | 178.74576 | 31451 ft | 520 kts | 72° |
| 2026-04-26 05:57 | -17.29256 | 178.78226 | 31786 ft | 523 kts | 72° |
| 2026-04-26 05:58 | -17.28285 | 178.81889 | 32289 ft | 522 kts | 72° |
| 2026-04-26 05:58 | -17.27315 | 178.85542 | 32789 ft | 521 kts | 72° |
| 2026-04-26 05:58 | -17.26343 | 178.89199 | 33238 ft | 521 kts | 72° |
| 2026-04-26 05:58 | -17.25383 | 178.92808 | 33680 ft | 521 kts | 71° |
| 2026-04-26 05:59 | -17.24412 | 178.96456 | 34099 ft | 521 kts | 71° |
| 2026-04-26 05:59 | -17.23441 | 179.00105 | 34470 ft | 521 kts | 71° |
| 2026-04-26 05:59 | -17.22468 | 179.03755 | 34824 ft | 522 kts | 72° |
| 2026-04-26 05:59 | -17.21490 | 179.07417 | 35167 ft | 522 kts | 71° |
| 2026-04-26 06:00 | -17.20317 | 179.11003 | 35523 ft | 520 kts | 67° |
| 2026-04-26 06:00 | -17.19051 | 179.14557 | 35836 ft | 521 kts | 66° |
| 2026-04-26 06:00 | -17.17777 | 179.18104 | 36161 ft | 521 kts | 66° |
| 2026-04-26 06:00 | -17.16520 | 179.21669 | 36483 ft | 522 kts | 67° |
| 2026-04-26 06:01 | -17.15272 | 179.25234 | 36781 ft | 523 kts | 67° |
| 2026-04-26 06:01 | -17.14025 | 179.28759 | 37059 ft | 523 kts | 66° |
| 2026-04-26 06:01 | -17.12751 | 179.32329 | 37337 ft | 524 kts | 67° |
| 2026-04-26 06:01 | -17.11484 | 179.35898 | 37605 ft | 524 kts | 67° |
| 2026-04-26 06:02 | -17.10218 | 179.39481 | 37848 ft | 525 kts | 67° |
| 2026-04-26 06:02 | -17.08951 | 179.43058 | 38097 ft | 525 kts | 67° |
| 2026-04-26 06:02 | -17.07675 | 179.46643 | 38332 ft | 526 kts | 67° |
| 2026-04-26 06:02 | -17.06400 | 179.50225 | 38548 ft | 526 kts | 67° |
| 2026-04-26 06:03 | -17.05125 | 179.53817 | 38726 ft | 527 kts | 67° |
| 2026-04-26 06:03 | -17.03848 | 179.57406 | 38889 ft | 527 kts | 67° |
| 2026-04-26 06:03 | -17.02570 | 179.60996 | 39061 ft | 528 kts | 67° |
| 2026-04-26 06:03 | -17.01287 | 179.64595 | 39221 ft | 528 kts | 68° |
| 2026-04-26 06:04 | -17.00006 | 179.68189 | 39379 ft | 528 kts | 68° |
| 2026-04-26 06:04 | -16.98721 | 179.71793 | 39536 ft | 529 kts | 68° |
| 2026-04-26 06:04 | -16.97435 | 179.75395 | 39679 ft | 529 kts | 68° |
| 2026-04-26 06:04 | -16.96147 | 179.79001 | 39796 ft | 530 kts | 68° |
| 2026-04-26 06:05 | -16.94858 | 179.82607 | 39875 ft | 528 kts | 67° |
| 2026-04-26 06:05 | -16.92345 | 179.89639 | 39875 ft | 514 kts | 67° |
| 2026-04-26 06:06 | -16.89827 | 179.96660 | 39904 ft | 516 kts | 67° |
| 2026-04-26 06:06 | -16.87313 | -179.96326 | 39888 ft | 516 kts | 68° |
| 2026-04-26 06:07 | -16.84788 | -179.89294 | 39886 ft | 517 kts | 68° |
| 2026-04-26 06:07 | -16.82275 | -179.82303 | 39888 ft | 518 kts | 68° |
| 2026-04-26 06:08 | -16.79729 | -179.75228 | 39891 ft | 517 kts | 68° |
| 2026-04-26 06:08 | -16.77212 | -179.68243 | 39880 ft | 517 kts | 68° |
| 2026-04-26 06:09 | -16.74678 | -179.61220 | 39872 ft | 517 kts | 67° |
| 2026-04-26 06:09 | -16.72146 | -179.54211 | 39871 ft | 517 kts | 67° |
| 2026-04-26 06:10 | -16.69607 | -179.47188 | 39862 ft | 517 kts | 67° |
| 2026-04-26 06:10 | -16.67060 | -179.40155 | 39875 ft | 518 kts | 67° |
| 2026-04-26 06:11 | -16.64529 | -179.33170 | 39871 ft | 518 kts | 67° |
| 2026-04-26 06:11 | -16.61975 | -179.26135 | 39872 ft | 519 kts | 67° |
| 2026-04-26 06:12 | -16.59420 | -179.19104 | 39870 ft | 517 kts | 67° |
| 2026-04-26 06:12 | -16.57296 | -179.13266 | 39869 ft | 517 kts | 67° |
| 2026-04-26 06:13 | -16.54743 | -179.06254 | 39869 ft | 517 kts | 67° |
| 2026-04-26 06:13 | -16.52187 | -178.99243 | 39869 ft | 517 kts | 67° |
| 2026-04-26 06:14 | -16.49629 | -178.92235 | 39872 ft | 517 kts | 67° |
| 2026-04-26 06:14 | -16.47068 | -178.85228 | 39863 ft | 517 kts | 67° |
| 2026-04-26 06:15 | -16.44514 | -178.78247 | 39872 ft | 515 kts | 67° |
| 2026-04-26 06:15 | -16.41975 | -178.71316 | 39872 ft | 515 kts | 68° |
| 2026-04-26 06:16 | -16.39422 | -178.64353 | 39873 ft | 515 kts | 67° |
| 2026-04-26 06:16 | -16.36864 | -178.57387 | 39873 ft | 515 kts | 67° |
| 2026-04-26 06:17 | -16.34305 | -178.50427 | 39870 ft | 514 kts | 67° |
| 2026-04-26 06:17 | -16.31758 | -178.43507 | 39867 ft | 506 kts | 68° |
| 2026-04-26 06:18 | -16.29240 | -178.36670 | 39887 ft | 506 kts | 68° |
| 2026-04-26 06:18 | -16.26736 | -178.29883 | 39880 ft | 506 kts | 68° |
| 2026-04-26 06:19 | -16.24212 | -178.23038 | 39891 ft | 506 kts | 68° |
| 2026-04-26 06:19 | -16.21697 | -178.16201 | 39890 ft | 506 kts | 68° |
| 2026-04-26 06:20 | -16.19166 | -178.09342 | 39884 ft | 506 kts | 68° |
| 2026-04-26 06:20 | -16.16636 | -178.02487 | 39874 ft | 507 kts | 68° |
| 2026-04-26 06:21 | -16.14124 | -177.95690 | 39870 ft | 507 kts | 68° |
| 2026-04-26 06:21 | -16.11591 | -177.88843 | 39870 ft | 507 kts | 68° |
| 2026-04-26 06:22 | -16.09053 | -177.81991 | 39872 ft | 507 kts | 68° |
| 2026-04-26 06:22 | -16.06514 | -177.75144 | 39872 ft | 507 kts | 68° |
| 2026-04-26 06:23 | -16.03973 | -177.68300 | 39889 ft | 508 kts | 68° |
| 2026-04-26 06:23 | -16.01423 | -177.61438 | 39871 ft | 509 kts | 68° |
| 2026-04-26 06:24 | -15.98872 | -177.54580 | 39882 ft | 509 kts | 68° |
| 2026-04-26 06:24 | -15.96326 | -177.47744 | 39873 ft | 504 kts | 68° |
| 2026-04-26 06:25 | -15.93791 | -177.40948 | 39876 ft | 505 kts | 68° |
| 2026-04-26 06:25 | -15.91268 | -177.34188 | 39871 ft | 505 kts | 68° |
| 2026-04-26 06:26 | -15.88719 | -177.27368 | 39880 ft | 507 kts | 68° |
| 2026-04-26 06:26 | -15.86167 | -177.20545 | 39870 ft | 506 kts | 68° |
| 2026-04-26 06:27 | -15.83614 | -177.13727 | 39867 ft | 507 kts | 68° |
| 2026-04-26 06:27 | -15.81055 | -177.06904 | 39878 ft | 507 kts | 68° |
| 2026-04-26 06:28 | -15.78495 | -177.00081 | 39874 ft | 506 kts | 68° |
| 2026-04-26 06:28 | -15.75952 | -176.93315 | 39872 ft | 507 kts | 68° |
| 2026-04-26 06:29 | -15.73379 | -176.86472 | 39874 ft | 508 kts | 68° |
| 2026-04-26 06:29 | -15.70805 | -176.79637 | 39872 ft | 508 kts | 68° |
| 2026-04-26 06:30 | -15.68231 | -176.72809 | 39881 ft | 508 kts | 68° |
| 2026-04-26 06:30 | -15.65654 | -176.65980 | 39881 ft | 508 kts | 68° |
| 2026-04-26 06:31 | -15.63072 | -176.59143 | 39879 ft | 509 kts | 68° |
| 2026-04-26 06:31 | -15.60487 | -176.52310 | 39875 ft | 506 kts | 68° |
| 2026-04-26 06:32 | -15.57926 | -176.45543 | 39871 ft | 505 kts | 68° |
| 2026-04-26 06:32 | -15.55361 | -176.38774 | 39866 ft | 504 kts | 68° |
| 2026-04-26 06:33 | -15.52797 | -176.32015 | 39869 ft | 504 kts | 68° |
| 2026-04-26 06:33 | -15.50226 | -176.25245 | 39870 ft | 504 kts | 68° |
| 2026-04-26 06:34 | -15.47671 | -176.18524 | 39875 ft | 504 kts | 68° |
| 2026-04-26 06:34 | -15.45099 | -176.11766 | 39869 ft | 502 kts | 68° |
| 2026-04-26 06:35 | -15.42533 | -176.05029 | 39865 ft | 503 kts | 68° |
| 2026-04-26 06:35 | -15.39964 | -175.98292 | 39872 ft | 503 kts | 68° |
| 2026-04-26 06:36 | -15.37390 | -175.91550 | 39872 ft | 502 kts | 68° |
| 2026-04-26 06:36 | -15.34814 | -175.84809 | 39869 ft | 503 kts | 68° |
| 2026-04-26 06:37 | -15.32252 | -175.78111 | 39868 ft | 503 kts | 68° |
| 2026-04-26 06:37 | -15.29670 | -175.71369 | 39868 ft | 504 kts | 68° |
| 2026-04-26 06:38 | -15.27081 | -175.64615 | 39870 ft | 504 kts | 68° |
| 2026-04-26 06:38 | -15.24491 | -175.57865 | 39871 ft | 504 kts | 68° |
| 2026-04-26 06:39 | -15.21918 | -175.51167 | 39864 ft | 497 kts | 68° |
| 2026-04-26 06:39 | -15.19353 | -175.44496 | 39863 ft | 499 kts | 68° |
| 2026-04-26 06:40 | -15.16810 | -175.37889 | 39861 ft | 495 kts | 68° |
| 2026-04-26 06:40 | -15.14258 | -175.31268 | 39860 ft | 495 kts | 68° |
| 2026-04-26 06:41 | -15.11699 | -175.24632 | 39870 ft | 495 kts | 68° |
| 2026-04-26 06:41 | -15.09141 | -175.18008 | 39866 ft | 496 kts | 68° |
| 2026-04-26 06:42 | -15.06581 | -175.11383 | 39871 ft | 496 kts | 68° |
| 2026-04-26 06:42 | -15.04014 | -175.04750 | 39876 ft | 496 kts | 68° |
| 2026-04-26 06:43 | -15.01464 | -174.98164 | 39860 ft | 491 kts | 68° |
| 2026-04-26 06:43 | -14.98929 | -174.91625 | 39864 ft | 488 kts | 68° |
| 2026-04-26 06:44 | -14.96413 | -174.85139 | 39860 ft | 487 kts | 68° |
| 2026-04-26 06:44 | -14.93881 | -174.78621 | 39862 ft | 487 kts | 68° |
| 2026-04-26 06:45 | -14.91351 | -174.72113 | 39869 ft | 488 kts | 68° |
| 2026-04-26 06:45 | -14.88817 | -174.65602 | 39867 ft | 488 kts | 68° |
| 2026-04-26 06:46 | -14.86283 | -174.59095 | 39870 ft | 488 kts | 68° |
| 2026-04-26 06:46 | -14.83749 | -174.52596 | 39861 ft | 488 kts | 68° |
| 2026-04-26 06:47 | -14.81214 | -174.46100 | 39858 ft | 487 kts | 68° |
| 2026-04-26 06:47 | -14.78679 | -174.39610 | 39858 ft | 486 kts | 68° |
| 2026-04-26 06:48 | -14.76140 | -174.33115 | 39868 ft | 486 kts | 68° |
| 2026-04-26 06:48 | -14.73615 | -174.26666 | 39860 ft | 487 kts | 68° |
| 2026-04-26 06:49 | -14.71067 | -174.20169 | 39842 ft | 489 kts | 68° |
| 2026-04-26 06:49 | -14.69778 | -174.16890 | 39438 ft | 497 kts | 68° |
| 2026-04-26 06:49 | -14.68469 | -174.13561 | 38878 ft | 502 kts | 68° |
| 2026-04-26 06:49 | -14.67152 | -174.10211 | 38282 ft | 504 kts | 68° |
| 2026-04-26 06:50 | -14.65830 | -174.06854 | 37725 ft | 503 kts | 68° |
| 2026-04-26 06:50 | -14.64514 | -174.03511 | 37175 ft | 502 kts | 68° |
| 2026-04-26 06:50 | -14.63199 | -174.00174 | 36623 ft | 501 kts | 68° |
| 2026-04-26 06:50 | -14.61888 | -173.96845 | 36073 ft | 500 kts | 68° |
| 2026-04-26 06:51 | -14.60574 | -173.93514 | 35517 ft | 500 kts | 68° |
| 2026-04-26 06:51 | -14.57952 | -173.86867 | 34396 ft | 500 kts | 68° |
| 2026-04-26 06:51 | -14.56639 | -173.83544 | 33823 ft | 500 kts | 68° |
| 2026-04-26 06:52 | -14.55324 | -173.80213 | 33204 ft | 500 kts | 68° |
| 2026-04-26 06:52 | -14.54014 | -173.76898 | 32624 ft | 498 kts | 68° |
| 2026-04-26 06:52 | -14.52722 | -173.73631 | 32040 ft | 497 kts | 68° |
| 2026-04-26 06:52 | -14.51417 | -173.70332 | 31436 ft | 497 kts | 68° |
| 2026-04-26 06:53 | -14.50092 | -173.66985 | 30829 ft | 497 kts | 68° |
| 2026-04-26 06:53 | -14.48802 | -173.63726 | 30214 ft | 498 kts | 68° |
| 2026-04-26 06:53 | -14.47490 | -173.60416 | 29546 ft | 499 kts | 67° |
| 2026-04-26 06:53 | -14.46177 | -173.57103 | 28906 ft | 497 kts | 67° |
| 2026-04-26 06:54 | -14.44867 | -173.53799 | 28260 ft | 496 kts | 68° |
| 2026-04-26 06:54 | -14.43565 | -173.50517 | 27623 ft | 493 kts | 67° |
| 2026-04-26 06:54 | -14.42270 | -173.47255 | 26994 ft | 490 kts | 67° |
| 2026-04-26 06:54 | -14.40982 | -173.44010 | 26350 ft | 487 kts | 68° |
| 2026-04-26 06:55 | -14.39703 | -173.40790 | 25714 ft | 484 kts | 67° |
| 2026-04-26 06:55 | -14.38428 | -173.37583 | 25085 ft | 482 kts | 67° |
| 2026-04-26 06:55 | -14.37158 | -173.34390 | 24471 ft | 479 kts | 68° |
| 2026-04-26 06:55 | -14.35894 | -173.31213 | 23839 ft | 477 kts | 68° |
| 2026-04-26 06:56 | -14.34638 | -173.28055 | 23187 ft | 475 kts | 68° |
| 2026-04-26 06:56 | -14.33806 | -173.25966 | 22762 ft | 473 kts | 68° |
| 2026-04-26 06:56 | -14.32564 | -173.22848 | 22142 ft | 468 kts | 68° |
| 2026-04-26 06:56 | -14.31333 | -173.19760 | 21542 ft | 463 kts | 68° |
| 2026-04-26 06:57 | -14.30113 | -173.16699 | 20934 ft | 459 kts | 68° |
| 2026-04-26 06:57 | -14.28904 | -173.13667 | 20336 ft | 455 kts | 68° |
| 2026-04-26 06:57 | -14.27317 | -173.09689 | 19546 ft | 450 kts | 68° |
| 2026-04-26 06:57 | -14.26513 | -173.07674 | 19142 ft | 448 kts | 68° |
| 2026-04-26 06:58 | -14.25329 | -173.04708 | 18552 ft | 445 kts | 68° |
| 2026-04-26 06:58 | -14.24156 | -173.01775 | 17937 ft | 442 kts | 68° |
| 2026-04-26 06:58 | -14.22991 | -172.98858 | 17346 ft | 437 kts | 68° |
| 2026-04-26 06:58 | -14.21841 | -172.95981 | 16763 ft | 432 kts | 68° |
| 2026-04-26 06:59 | -14.20716 | -172.93167 | 16197 ft | 427 kts | 68° |
| 2026-04-26 06:59 | -14.19591 | -172.90357 | 15647 ft | 423 kts | 68° |
| 2026-04-26 06:59 | -14.18480 | -172.87582 | 15203 ft | 415 kts | 68° |
| 2026-04-26 06:59 | -14.17382 | -172.84839 | 14657 ft | 412 kts | 68° |
| 2026-04-26 07:00 | -14.16293 | -172.82122 | 14103 ft | 409 kts | 69° |
| 2026-04-26 07:00 | -14.15208 | -172.79414 | 13507 ft | 406 kts | 69° |
| 2026-04-26 07:00 | -14.14135 | -172.76736 | 12958 ft | 402 kts | 69° |
| 2026-04-26 07:00 | -14.13071 | -172.74085 | 12400 ft | 398 kts | 69° |
| 2026-04-26 07:01 | -14.12018 | -172.71456 | 11830 ft | 395 kts | 69° |
| 2026-04-26 07:01 | -14.10974 | -172.68856 | 11399 ft | 389 kts | 69° |
| 2026-04-26 07:01 | -14.09962 | -172.66339 | 11192 ft | 366 kts | 69° |
| 2026-04-26 07:01 | -14.09030 | -172.64023 | 11030 ft | 333 kts | 69° |
| 2026-04-26 07:02 | -14.08182 | -172.61911 | 10862 ft | 306 kts | 69° |
| 2026-04-26 07:02 | -14.07402 | -172.59968 | 10726 ft | 282 kts | 69° |
| 2026-04-26 07:02 | -14.06690 | -172.58196 | 10610 ft | 261 kts | 70° |
| 2026-04-26 07:02 | -14.06021 | -172.56532 | 10336 ft | 247 kts | 70° |
| 2026-04-26 07:03 | -14.05343 | -172.54836 | 9598 ft | 262 kts | 70° |
| 2026-04-26 07:03 | -14.04646 | -172.53102 | 8919 ft | 260 kts | 69° |
| 2026-04-26 07:03 | -14.03952 | -172.51379 | 8555 ft | 263 kts | 69° |
| 2026-04-26 07:03 | -14.03251 | -172.49638 | 8196 ft | 262 kts | 69° |
| 2026-04-26 07:04 | -14.02551 | -172.47899 | 7853 ft | 263 kts | 69° |
| 2026-04-26 07:04 | -14.01849 | -172.46155 | 7528 ft | 264 kts | 69° |
| 2026-04-26 07:04 | -14.01131 | -172.44411 | 7184 ft | 265 kts | 64° |
| 2026-04-26 07:04 | -13.99940 | -172.42974 | 6963 ft | 264 kts | 45° |
| 2026-04-26 07:05 | -13.98947 | -172.41494 | 6941 ft | 243 kts | 75° |
| 2026-04-26 07:05 | -13.98602 | -172.39809 | 6776 ft | 241 kts | 82° |
| 2026-04-26 07:05 | -13.98282 | -172.38101 | 6491 ft | 245 kts | 76° |
| 2026-04-26 07:05 | -13.97732 | -172.36446 | 6204 ft | 250 kts | 69° |
| 2026-04-26 07:06 | -13.97031 | -172.34789 | 5876 ft | 255 kts | 68° |
| 2026-04-26 07:06 | -13.96335 | -172.33095 | 5569 ft | 259 kts | 70° |
| 2026-04-26 07:06 | -13.95664 | -172.31359 | 5245 ft | 263 kts | 70° |
| 2026-04-26 07:06 | -13.94986 | -172.29598 | 4926 ft | 266 kts | 70° |
| 2026-04-26 07:07 | -13.94299 | -172.27842 | 4773 ft | 262 kts | 70° |
| 2026-04-26 07:07 | -13.93619 | -172.26113 | 4660 ft | 258 kts | 70° |
| 2026-04-26 07:07 | -13.92969 | -172.24456 | 4513 ft | 240 kts | 70° |
| 2026-04-26 07:07 | -13.92366 | -172.22914 | 4358 ft | 225 kts | 70° |
| 2026-04-26 07:08 | -13.91784 | -172.21423 | 4206 ft | 224 kts | 70° |
| 2026-04-26 07:08 | -13.91188 | -172.19948 | 4095 ft | 223 kts | 66° |
| 2026-04-26 07:08 | -13.90196 | -172.18743 | 4000 ft | 220 kts | 34° |
| 2026-04-26 07:08 | -13.88753 | -172.18313 | 3904 ft | 221 kts | 5° |
| 2026-04-26 07:09 | -13.87238 | -172.18579 | 3796 ft | 225 kts | 340° |
| 2026-04-26 07:09 | -13.85802 | -172.19157 | 3677 ft | 222 kts | 350° |
| 2026-04-26 07:09 | -13.84301 | -172.19223 | 3544 ft | 213 kts | 21° |
| 2026-04-26 07:09 | -13.83081 | -172.18472 | 3183 ft | 201 kts | 55° |
| 2026-04-26 07:10 | -13.82942 | -172.14686 | 2519 ft | 178 kts | 104° |
| 2026-04-26 07:11 | -13.83196 | -172.12090 | 2233 ft | 183 kts | 90° |
| 2026-04-26 07:11 | -13.83188 | -172.10853 | 2170 ft | 162 kts | 88° |
| 2026-04-26 07:11 | -13.83166 | -172.09637 | 2220 ft | 180 kts | 89° |
| 2026-04-26 07:11 | -13.83138 | -172.08356 | 2221 ft | 184 kts | 87° |
| 2026-04-26 07:12 | -13.83084 | -172.07034 | 2192 ft | 183 kts | 88° |
| 2026-04-26 07:12 | -13.83058 | -172.05684 | 2232 ft | 194 kts | 89° |
| 2026-04-26 07:12 | -13.83042 | -172.04292 | 2228 ft | 199 kts | 89° |
| 2026-04-26 07:12 | -13.83026 | -172.02891 | 2213 ft | 199 kts | 89° |
| 2026-04-26 07:13 | -13.82958 | -172.01477 | 2202 ft | 194 kts | 84° |
| 2026-04-26 07:13 | -13.82891 | -172.00079 | 2212 ft | 194 kts | 88° |
| 2026-04-26 07:13 | -13.82842 | -171.98668 | 2213 ft | 201 kts | 88° |
| 2026-04-26 07:13 | -13.82786 | -171.97252 | 2211 ft | 199 kts | 88° |
| 2026-04-26 07:14 | -13.82733 | -171.95832 | 2197 ft | 197 kts | 88° |
| 2026-04-26 07:14 | -13.82693 | -171.94425 | 2198 ft | 197 kts | 88° |
| 2026-04-26 07:14 | -13.82650 | -171.93018 | 2211 ft | 196 kts | 88° |
| 2026-04-26 07:14 | -13.82761 | -171.91611 | 2187 ft | 199 kts | 113° |
| 2026-04-26 07:15 | -13.83642 | -171.90546 | 2213 ft | 203 kts | 147° |
| 2026-04-26 07:15 | -13.85034 | -171.90234 | 2297 ft | 214 kts | 184° |
| 2026-04-26 07:15 | -13.86419 | -171.90848 | 2477 ft | 224 kts | 219° |
| 2026-04-26 07:15 | -13.87261 | -171.92171 | 2713 ft | 229 kts | 255° |
| 2026-04-26 07:16 | -13.87250 | -171.93788 | 3115 ft | 229 kts | 290° |
| 2026-04-26 07:16 | -13.86391 | -171.95144 | 3438 ft | 228 kts | 323° |
| 2026-04-26 07:16 | -13.85144 | -171.96143 | 3831 ft | 226 kts | 324° |
| 2026-04-26 07:16 | -13.84043 | -171.97226 | 3803 ft | 212 kts | 310° |
| 2026-04-26 07:17 | -13.83278 | -171.98505 | 3808 ft | 213 kts | 293° |
| 2026-04-26 07:17 | -13.83156 | -172.00032 | 3923 ft | 222 kts | 254° |
| 2026-04-26 07:17 | -13.83818 | -172.01485 | 4138 ft | 228 kts | 236° |
| 2026-04-26 07:17 | -13.84679 | -172.02899 | 4335 ft | 238 kts | 235° |
| 2026-04-26 07:18 | -13.85535 | -172.04383 | 4559 ft | 245 kts | 239° |
| 2026-04-26 07:18 | -13.86331 | -172.05950 | 4795 ft | 249 kts | 240° |
| 2026-04-26 07:18 | -13.87129 | -172.07545 | 5053 ft | 252 kts | 240° |
| 2026-04-26 07:18 | -13.87954 | -172.09146 | 5310 ft | 255 kts | 239° |
| 2026-04-26 07:19 | -13.88791 | -172.10757 | 5577 ft | 256 kts | 239° |
| 2026-04-26 07:19 | -13.89615 | -172.12356 | 5689 ft | 246 kts | 239° |
| 2026-04-26 07:19 | -13.90406 | -172.13894 | 5691 ft | 242 kts | 239° |
| 2026-04-26 07:19 | -13.91193 | -172.15421 | 5694 ft | 240 kts | 239° |
| 2026-04-26 07:20 | -13.91964 | -172.16915 | 5703 ft | 240 kts | 239° |
| 2026-04-26 07:20 | -13.92649 | -172.18481 | 5695 ft | 242 kts | 256° |
| 2026-04-26 07:20 | -13.92811 | -172.20185 | 5100 ft | 243 kts | 278° |
| 2026-04-26 07:20 | -13.92369 | -172.21852 | 4590 ft | 238 kts | 298° |
| 2026-04-26 07:21 | -13.91456 | -172.23209 | 4194 ft | 225 kts | 317° |
| 2026-04-26 07:21 | -13.90229 | -172.24152 | 3870 ft | 217 kts | 337° |
| 2026-04-26 07:21 | -13.88832 | -172.24639 | 3535 ft | 208 kts | 355° |
| 2026-04-26 07:21 | -13.87417 | -172.24675 | 3200 ft | 200 kts | 13° |
| 2026-04-26 07:22 | -13.86100 | -172.24307 | 2829 ft | 194 kts | 29° |
| 2026-04-26 07:22 | -13.84967 | -172.23593 | 2534 ft | 186 kts | 45° |
| 2026-04-26 07:22 | -13.84120 | -172.22662 | 2508 ft | 178 kts | 58° |
| 2026-04-26 07:22 | -13.83581 | -172.21522 | 2515 ft | 182 kts | 78° |
| 2026-04-26 07:23 | -13.83383 | -172.20233 | 2520 ft | 183 kts | 89° |
| 2026-04-26 07:23 | -13.83323 | -172.18926 | 2529 ft | 184 kts | 88° |
| 2026-04-26 07:23 | -13.83292 | -172.17609 | 2523 ft | 182 kts | 89° |
| 2026-04-26 07:23 | -13.83269 | -172.16311 | 2516 ft | 181 kts | 89° |
| 2026-04-26 07:24 | -13.83248 | -172.15009 | 2357 ft | 180 kts | 89° |
| 2026-04-26 07:24 | -13.83226 | -172.13733 | 2151 ft | 178 kts | 89° |
| 2026-04-26 07:24 | -13.83204 | -172.12478 | 1953 ft | 169 kts | 89° |
| 2026-04-26 07:24 | -13.83186 | -172.11330 | 1742 ft | 154 kts | 88° |
| 2026-04-26 07:25 | -13.83165 | -172.10230 | 1534 ft | 152 kts | 89° |
| 2026-04-26 07:25 | -13.83153 | -172.09132 | 1334 ft | 157 kts | 89° |
| 2026-04-26 07:25 | -13.83137 | -172.08017 | 1122 ft | 152 kts | 88° |
| 2026-04-26 07:25 | -13.83104 | -172.06921 | 942 ft | 154 kts | 86° |
| 2026-04-26 07:26 | -13.83056 | -172.05816 | 772 ft | 155 kts | 88° |
| 2026-04-26 07:26 | -13.83037 | -172.04726 | 539 ft | 150 kts | 90° |
| 2026-04-26 07:26 | -13.83026 | -172.03653 | 404 ft | 151 kts | 92° |
| 2026-04-26 07:26 | -13.83018 | -172.02555 | 138 ft | 155 kts | 90° |
| 2026-04-26 07:27 | -13.83010 | -172.01482 | 30 ft | 140 kts | 89° |
| 2026-04-26 07:27 | -13.83000 | -172.00676 | 14 ft | 88 kts | 89° |
| 2026-04-26 07:27 | -13.82992 | -172.00188 | 5 ft | 51 kts | 89° |
| 2026-04-26 07:27 | -13.82988 | -171.99900 | -1 ft | 26 kts | 89° |
| 2026-04-26 07:28 | -13.82988 | -171.99820 | -2 ft | 6 kts | 89° |
| 2026-04-26 07:28 | -13.82988 | -171.99784 | -3 ft | 5 kts | 89° |
| 2026-04-26 07:28 | -13.82997 | -171.99757 | -3 ft | 3 kts | 126° |
| 2026-04-26 07:28 | -13.83011 | -171.99748 | -3 ft | 2 kts | 154° |
| 2026-04-26 07:29 | -13.83033 | -171.99741 | -3 ft | 5 kts | 167° |
| 2026-04-26 07:29 | -13.83070 | -171.99737 | -2 ft | 5 kts | 182° |
| 2026-04-26 07:29 | -13.83088 | -171.99738 | -2 ft | 0 kts | 182° |
| 2026-04-26 07:29 | -13.83100 | -171.99739 | -2 ft | 4 kts | 181° |
| 2026-04-26 07:30 | -13.83130 | -171.99729 | -2 ft | 7 kts | 158° |
| 2026-04-26 07:30 | -13.83174 | -171.99702 | -3 ft | 5 kts | 128° |
| 2026-04-26 07:30 | -13.83178 | -171.99679 | -4 ft | 2 kts | 94° |
| 2026-04-26 07:30 | -13.83178 | -171.99673 | -4 ft | 0 kts | 91° |